createdAt,value
2022-08-05T00:04:58.052Z,99701.97
2022-08-05T00:10:00.781Z,99704.34
2022-08-05T00:15:56.309Z,99696.34
2022-08-05T00:20:29.124Z,99688.50
2022-08-05T00:25:41.599Z,99685.78
2022-08-05T00:30:52.043Z,99686.97
2022-08-05T00:36:15.935Z,99686.28
2022-08-05T00:41:29.607Z,99687.28
2022-08-05T00:47:02.080Z,99693.72
2022-08-05T00:52:07.271Z,99695.44
2022-08-05T00:57:10.116Z,99699.84
2022-08-05T01:02:14.206Z,99684.88
2022-08-05T01:07:19.404Z,99690.66
2022-08-05T01:12:24.261Z,99688.28
2022-08-05T01:17:43.888Z,99700.03
2022-08-05T01:23:14.298Z,99696.59
2022-08-05T01:28:26.583Z,99696.25
2022-08-05T01:33:36.749Z,99697.44
2022-08-05T01:38:41.938Z,99697.28
2022-08-05T01:43:49.381Z,99689.59
2022-08-05T01:48:55.603Z,99699.28
2022-08-05T01:54:02.150Z,99692.63
2022-08-05T01:59:10.806Z,99682.09
2022-08-05T02:04:17.615Z,99682.06
2022-08-05T02:09:20.963Z,99666.25
2022-08-05T02:14:32.093Z,99673.03
2022-08-05T02:19:46.996Z,99678.09
2022-08-05T02:24:54.109Z,99676.44
2022-08-05T02:30:00.779Z,99680.22
2022-08-05T02:35:14.081Z,99671.84
2022-08-05T02:40:18.199Z,99671.66
2022-08-05T02:45:24.362Z,99672.88
2022-08-05T02:50:29.677Z,99664.53
2022-08-05T02:55:52.002Z,99661.81
2022-08-05T03:01:02.220Z,99675.28
2022-08-05T03:06:55.283Z,99682.91
2022-08-05T03:11:55.599Z,99670.47
2022-08-05T03:16:53.503Z,99664.03
2022-08-05T03:21:56.322Z,99665.38
2022-08-05T03:27:01.748Z,99681.44
2022-08-05T03:32:07.632Z,99688.25
2022-08-05T03:37:11.758Z,99689.50
2022-08-05T03:42:17.041Z,99705.72
2022-08-05T03:47:21.393Z,99698.19
2022-08-05T03:52:39.072Z,99702.44
2022-08-05T03:57:54.425Z,99715.38
2022-08-05T04:03:02.788Z,99711.81
2022-08-05T04:08:14.774Z,99709.56
2022-08-05T04:13:49.798Z,99710.13
2022-08-05T04:18:57.745Z,99703.00
2022-08-05T04:24:05.028Z,99704.59
2022-08-05T04:29:09.513Z,99720.09
2022-08-05T04:34:31.434Z,99718.66
2022-08-05T04:39:36.151Z,99726.59
2022-08-05T04:44:39.092Z,99733.94
2022-08-05T04:50:02.721Z,99748.13
2022-08-05T04:55:14.482Z,99807.91
2022-08-05T05:00:18.612Z,99821.72
2022-08-05T05:05:29.383Z,99807.31
2022-08-05T05:10:34.539Z,99834.50
2022-08-05T05:15:56.594Z,99830.91
2022-08-05T05:21:01.623Z,99841.88
2022-08-05T05:26:04.438Z,99851.97
2022-08-05T05:31:08.863Z,99848.81
2022-08-05T05:36:13.169Z,99860.06
2022-08-05T05:41:17.565Z,99876.00
2022-08-05T05:46:21.816Z,99868.03
2022-08-05T05:51:27.869Z,99869.59
2022-08-05T05:56:34.706Z,99870.44
2022-08-05T06:01:40.226Z,99844.28
2022-08-05T06:06:47.556Z,99845.31
2022-08-05T06:12:02.117Z,99852.47
2022-08-05T06:17:22.129Z,99863.78
2022-08-05T06:22:30.236Z,99861.78
2022-08-05T06:28:12.584Z,99847.81
2022-08-05T06:32:59.765Z,99850.41
2022-08-05T06:38:11.237Z,99853.69
2022-08-05T06:43:58.933Z,99857.53
2022-08-05T06:48:54.619Z,99848.69
2022-08-05T06:54:03.838Z,99859.97
2022-08-05T06:59:08.430Z,99851.09
2022-08-05T07:04:14.037Z,99854.81
2022-08-05T07:09:18.371Z,99866.09
2022-08-05T07:14:40.404Z,99884.91
2022-08-05T07:25:22.718Z,99909.59
2022-08-05T07:30:32.077Z,99909.75
2022-08-05T07:36:03.388Z,99923.72
2022-08-05T07:41:04.548Z,99926.28
2022-08-05T07:46:25.080Z,99948.00
2022-08-05T07:51:37.564Z,99950.16
2022-08-05T07:57:02.320Z,99948.84
2022-08-05T08:02:15.830Z,99958.56
2022-08-05T08:07:22.764Z,99955.84
2022-08-05T08:12:39.365Z,99961.69
2022-08-05T08:17:52.714Z,99968.69
2022-08-05T08:22:57.407Z,99977.56
2022-08-05T08:28:01.588Z,99981.66
2022-08-05T08:33:08.986Z,99994.53
2022-08-05T08:38:16.867Z,99997.09
2022-08-05T08:45:16.345Z,99995.81
2022-08-05T08:50:05.720Z,99987.94
2022-08-05T08:54:29.645Z,99978.22
2022-08-05T08:59:34.345Z,99978.94
2022-08-05T09:04:58.202Z,99965.22
2022-08-05T09:10:01.441Z,99933.19
2022-08-05T09:15:07.507Z,99921.31
2022-08-05T09:20:12.743Z,99915.16
2022-08-05T09:25:59.862Z,99912.53
2022-08-05T09:31:22.732Z,99911.31
2022-08-05T09:36:54.821Z,99895.66
2022-08-05T09:42:01.137Z,99890.22
2022-08-05T09:47:15.764Z,99888.91
2022-08-05T09:52:21.898Z,99885.03
2022-08-05T09:57:39.408Z,99901.72
2022-08-05T10:02:46.091Z,99913.53
2022-08-05T10:08:35.172Z,99918.19
2022-08-05T10:13:31.532Z,99897.16
2022-08-05T10:18:35.992Z,99902.13
2022-08-05T10:23:59.297Z,99916.44
2022-08-05T10:29:02.754Z,99906.81
2022-08-05T10:34:08.326Z,99917.06
2022-08-05T10:39:25.199Z,99913.00
2022-08-05T10:44:39.989Z,99907.41
2022-08-05T10:50:35.365Z,99912.25
2022-08-05T10:55:30.527Z,99898.34
2022-08-05T11:00:47.542Z,99892.25
2022-08-05T11:06:14.674Z,99895.53
2022-08-05T11:11:52.684Z,99911.69
2022-08-05T11:18:00.151Z,99904.25
2022-08-05T11:23:01.991Z,99885.03
2022-08-05T11:28:43.145Z,99890.88
2022-08-05T11:33:55.007Z,99875.78
2022-08-05T11:38:59.714Z,99870.25
2022-08-05T11:44:08.375Z,99879.63
2022-08-05T11:49:14.567Z,99873.69
2022-08-05T11:54:33.457Z,99872.03
2022-08-05T11:59:41.237Z,99868.22
2022-08-05T12:04:53.501Z,99867.56
2022-08-05T12:10:09.594Z,99857.53
2022-08-05T12:15:20.676Z,99865.22
2022-08-05T12:20:41.378Z,99863.00
2022-08-05T12:25:53.450Z,99862.53
2022-08-05T12:30:57.700Z,99847.88
2022-08-05T12:36:08.122Z,99854.72
2022-08-05T12:41:14.255Z,99852.38
2022-08-05T12:46:29.575Z,99851.88
2022-08-05T12:52:13.049Z,99850.19
2022-08-05T12:56:59.075Z,99859.88
2022-08-05T13:02:07.422Z,99862.63
2022-08-05T13:07:16.028Z,99858.38
2022-08-05T13:12:23.349Z,99856.34
2022-08-05T13:17:41.397Z,99856.03
2022-08-05T13:22:51.583Z,99847.38
2022-08-05T13:27:57.365Z,99842.78
2022-08-05T13:33:01.089Z,99853.19
2022-08-05T13:38:04.953Z,99862.03
2022-08-05T13:43:12.275Z,99855.41
2022-08-05T13:48:58.613Z,99861.41
2022-08-05T13:53:47.904Z,99856.97
2022-08-05T13:58:53.409Z,99862.78
2022-08-05T14:04:10.647Z,99863.13
2022-08-05T14:09:13.421Z,99859.38
2022-08-05T14:14:23.318Z,99870.47
2022-08-05T14:19:28.881Z,99867.56
2022-08-05T14:24:31.663Z,99864.84
2022-08-05T14:29:36.650Z,99867.72
2022-08-05T14:34:39.432Z,99876.63
2022-08-05T14:39:50.191Z,99875.59
2022-08-05T14:45:01.285Z,99867.09
2022-08-05T14:50:17.147Z,99881.94
2022-08-05T14:55:21.649Z,99892.84
2022-08-05T15:00:29.421Z,99891.97
2022-08-05T15:06:07.910Z,99883.78
2022-08-05T15:10:55.455Z,99898.81
2022-08-05T15:15:59.887Z,99900.50
2022-08-05T15:21:07.658Z,99913.31
2022-08-05T15:26:10.688Z,99915.00
2022-08-05T15:31:15.159Z,99906.31
2022-08-05T15:36:24.568Z,99901.69
2022-08-05T15:41:57.231Z,99903.09
2022-08-05T15:46:52.991Z,99943.16
2022-08-05T15:52:10.343Z,99970.78
2022-08-05T15:57:21.782Z,99995.69
2022-08-05T16:02:27.717Z,100018.00
2022-08-05T16:07:32.111Z,100026.72
2022-08-05T16:12:35.082Z,100031.16
2022-08-05T16:17:39.204Z,100052.13
2022-08-05T16:22:41.934Z,100072.94
2022-08-05T16:27:47.082Z,100083.34
2022-08-05T16:33:04.801Z,100101.13
2022-08-05T16:38:18.679Z,100112.88
2022-08-05T16:43:31.322Z,100123.81
2022-08-05T16:48:35.982Z,100128.72
2022-08-05T16:54:04.334Z,100153.47
2022-08-05T16:59:08.287Z,100171.72
2022-08-05T17:04:12.730Z,100196.81
2022-08-05T17:09:17.940Z,100225.81
2022-08-05T17:14:22.529Z,100239.09
2022-08-05T17:19:38.935Z,100241.34
2022-08-05T17:24:46.391Z,100234.66
2022-08-05T17:30:02.545Z,100238.75
2022-08-05T17:35:08.174Z,100224.25
2022-08-05T17:40:17.926Z,100238.75
2022-08-05T17:45:22.411Z,100259.25
2022-08-05T17:50:30.330Z,100271.19
2022-08-05T17:55:39.588Z,100282.28
2022-08-05T18:00:47.781Z,100293.94
2022-08-05T18:05:55.320Z,100307.34
2022-08-05T18:11:04.795Z,100317.22
2022-08-05T18:16:09.572Z,100308.69
2022-08-05T18:21:21.090Z,100303.66
2022-08-05T18:26:27.831Z,100326.28
2022-08-05T18:31:35.436Z,100334.72
2022-08-05T18:36:41.368Z,100352.75
2022-08-05T18:41:59.497Z,100349.00
2022-08-05T18:47:05.045Z,100351.16
2022-08-05T18:52:33.037Z,100366.75
2022-08-05T18:57:52.473Z,100376.69
2022-08-05T19:02:56.493Z,100389.41
2022-08-05T19:08:02.736Z,100395.19
2022-08-05T19:13:05.774Z,100406.25
2022-08-05T19:18:13.526Z,100414.19
2022-08-05T19:24:06.757Z,100431.34
2022-08-05T19:28:47.860Z,100441.94
2022-08-05T19:33:56.474Z,100461.28
2022-08-05T19:39:01.954Z,100468.88
2022-08-05T19:44:13.651Z,100485.50
2022-08-05T19:49:17.804Z,100493.22
2022-08-05T19:54:31.295Z,100491.34
2022-08-05T19:59:56.073Z,100470.88
2022-08-05T20:04:58.359Z,100488.31
2022-08-05T20:10:04.862Z,100495.94
2022-08-05T20:15:15.835Z,100498.91
2022-08-05T20:20:38.978Z,100506.66
2022-08-05T20:25:43.119Z,100509.06
2022-08-05T20:30:45.832Z,100509.19
2022-08-05T20:35:50.703Z,100524.09
2022-08-05T20:40:55.453Z,100567.16
2022-08-05T20:46:00.338Z,100579.06
2022-08-05T20:51:08.078Z,100561.41
2022-08-05T20:56:12.524Z,100623.41
2022-08-05T21:01:15.285Z,100630.66
2022-08-05T21:06:28.591Z,100577.84
2022-08-05T21:12:07.479Z,100595.66
2022-08-05T21:16:56.955Z,100592.22
2022-08-05T21:21:59.719Z,100521.16
2022-08-05T21:27:04.217Z,100511.72
2022-08-05T21:32:09.846Z,100587.69
2022-08-05T21:37:19.952Z,100603.72
2022-08-05T21:42:41.195Z,100616.97
2022-08-05T21:47:57.111Z,100628.38
2022-08-05T21:53:04.599Z,100597.09
2022-08-05T21:58:12.707Z,100571.03
2022-08-05T22:03:15.495Z,100532.44
2022-08-05T22:08:24.091Z,100534.19
2022-08-05T22:14:05.679Z,100606.41
2022-08-05T22:18:58.742Z,100650.94
2022-08-05T22:24:40.910Z,100664.69
2022-08-05T22:29:43.680Z,100672.19
2022-08-05T22:34:48.650Z,100660.75
2022-08-05T22:39:51.523Z,100659.63
2022-08-05T22:44:59.541Z,100670.66
2022-08-05T22:50:19.732Z,100683.13
2022-08-05T22:55:26.107Z,100664.88
2022-08-05T23:00:30.342Z,100655.44
2022-08-05T23:05:36.167Z,100665.22
2022-08-05T23:10:39.305Z,100668.38
2022-08-05T23:15:43.505Z,100678.56
2022-08-05T23:20:53.108Z,100692.88
2022-08-05T23:25:56.687Z,100692.16
2022-08-05T23:31:14.818Z,100679.56
2022-08-05T23:36:18.800Z,100684.31
2022-08-05T23:41:21.996Z,100692.69
2022-08-05T23:46:28.130Z,100686.72
2022-08-05T23:51:52.391Z,100702.84
2022-08-05T23:57:03.226Z,100705.75
